sensor_id;sensor_type;location;lat;lon;timestamp;P1;durP1;ratioP1;P2;durP2;ratioP2
62010;SDS011;47967;51.756;10.174;2023-02-08T05:04:25;12.32;;;5.68;;
62010;SDS011;47967;51.756;10.174;2023-02-08T05:08:28;11.25;;;4.97;;
62010;SDS011;47967;51.756;10.174;2023-02-08T05:12:31;11.38;;;5.90;;
62010;SDS011;47967;51.756;10.174;2023-02-08T05:16:33;16.38;;;6.63;;
62010;SDS011;47967;51.756;10.174;2023-02-08T05:20:37;17.08;;;7.22;;
62010;SDS011;47967;51.756;10.174;2023-02-08T05:24:40;19.85;;;8.35;;
62010;SDS011;47967;51.756;10.174;2023-02-08T05:28:42;17.65;;;6.95;;
62010;SDS011;47967;51.756;10.174;2023-02-08T05:32:45;18.65;;;6.13;;
62010;SDS011;47967;51.756;10.174;2023-02-08T05:36:49;13.10;;;6.35;;
62010;SDS011;47967;51.756;10.174;2023-02-08T05:40:51;13.02;;;6.40;;
62010;SDS011;47967;51.756;10.174;2023-02-08T05:44:54;13.35;;;5.55;;
62010;SDS011;47967;51.756;10.174;2023-02-08T05:48:56;13.18;;;6.20;;
62010;SDS011;47967;51.756;10.174;2023-02-08T05:53:00;17.15;;;6.55;;
62010;SDS011;47967;51.756;10.174;2023-02-08T05:57:03;16.23;;;6.43;;
62010;SDS011;47967;51.756;10.174;2023-02-08T06:01:09;13.18;;;5.57;;
62010;SDS011;47967;51.756;10.174;2023-02-08T06:05:12;14.07;;;6.63;;
62010;SDS011;47967;51.756;10.174;2023-02-08T06:09:15;14.15;;;5.88;;
62010;SDS011;47967;51.756;10.174;2023-02-08T06:13:18;13.10;;;6.00;;
62010;SDS011;47967;51.756;10.174;2023-02-08T06:17:21;11.15;;;5.65;;
62010;SDS011;47967;51.756;10.174;2023-02-08T06:21:23;15.75;;;6.55;;
62010;SDS011;47967;51.756;10.174;2023-02-08T06:25:27;14.50;;;6.45;;
62010;SDS011;47967;51.756;10.174;2023-02-08T06:29:30;11.35;;;5.53;;
62010;SDS011;47967;51.756;10.174;2023-02-08T06:33:32;15.60;;;6.78;;
62010;SDS011;47967;51.756;10.174;2023-02-08T06:37:35;15.43;;;7.10;;
62010;SDS011;47967;51.756;10.174;2023-02-08T06:41:39;15.10;;;6.72;;
62010;SDS011;47967;51.756;10.174;2023-02-08T06:45:42;14.75;;;5.75;;
62010;SDS011;47967;51.756;10.174;2023-02-08T06:49:46;13.90;;;6.07;;
62010;SDS011;47967;51.756;10.174;2023-02-08T06:53:48;16.00;;;6.57;;
62010;SDS011;47967;51.756;10.174;2023-02-08T06:57:53;13.70;;;6.15;;
62010;SDS011;47967;51.756;10.174;2023-02-08T07:01:55;12.98;;;6.25;;
62010;SDS011;47967;51.756;10.174;2023-02-08T07:06:01;18.70;;;7.47;;
62010;SDS011;47967;51.756;10.174;2023-02-08T07:10:06;15.35;;;6.97;;
62010;SDS011;47967;51.756;10.174;2023-02-08T07:14:12;23.85;;;9.85;;
62010;SDS011;47967;51.756;10.174;2023-02-08T07:18:15;22.25;;;10.18;;
62010;SDS011;47967;51.756;10.174;2023-02-08T07:22:18;21.23;;;9.30;;
62010;SDS011;47967;51.756;10.174;2023-02-08T07:26:21;19.10;;;8.40;;
62010;SDS011;47967;51.756;10.174;2023-02-08T07:30:25;15.30;;;7.78;;
62010;SDS011;47967;51.756;10.174;2023-02-08T07:34:28;14.68;;;6.68;;
62010;SDS011;47967;51.756;10.174;2023-02-08T07:38:31;22.60;;;10.02;;
62010;SDS011;47967;51.756;10.174;2023-02-08T07:42:34;18.20;;;8.38;;
62010;SDS011;47967;51.756;10.174;2023-02-08T07:46:49;15.43;;;6.93;;
62010;SDS011;47967;51.756;10.174;2023-02-08T07:50:52;16.27;;;7.05;;
62010;SDS011;47967;51.756;10.174;2023-02-08T07:54:54;13.20;;;5.63;;
62010;SDS011;47967;51.756;10.174;2023-02-08T07:58:57;12.50;;;4.93;;
62010;SDS011;47967;51.756;10.174;2023-02-08T08:03:01;12.90;;;5.72;;
62010;SDS011;47967;51.756;10.174;2023-02-08T08:07:03;11.20;;;5.03;;
62010;SDS011;47967;51.756;10.174;2023-02-08T08:11:06;13.18;;;6.05;;
62010;SDS011;47967;51.756;10.174;2023-02-08T08:15:09;13.73;;;6.43;;
62010;SDS011;47967;51.756;10.174;2023-02-08T08:19:13;15.32;;;7.00;;
62010;SDS011;47967;51.756;10.174;2023-02-08T08:23:15;22.67;;;7.68;;
62010;SDS011;47967;51.756;10.174;2023-02-08T08:27:19;15.13;;;7.13;;
62010;SDS011;47967;51.756;10.174;2023-02-08T08:31:22;17.75;;;7.35;;
62010;SDS011;47967;51.756;10.174;2023-02-08T08:35:26;17.30;;;8.02;;
62010;SDS011;47967;51.756;10.174;2023-02-08T08:39:28;21.75;;;8.55;;
62010;SDS011;47967;51.756;10.174;2023-02-08T08:43:32;19.80;;;8.73;;
62010;SDS011;47967;51.756;10.174;2023-02-08T08:47:34;22.77;;;9.60;;
62010;SDS011;47967;51.756;10.174;2023-02-08T08:51:38;24.88;;;9.27;;
62010;SDS011;47967;51.756;10.174;2023-02-08T08:55:41;25.88;;;12.30;;
62010;SDS011;47967;51.756;10.174;2023-02-08T08:59:45;25.20;;;10.85;;
62010;SDS011;47967;51.756;10.174;2023-02-08T09:03:48;27.90;;;12.57;;
62010;SDS011;47967;51.756;10.174;2023-02-08T09:07:52;28.63;;;12.60;;
62010;SDS011;47967;51.756;10.174;2023-02-08T09:11:54;29.13;;;12.15;;
62010;SDS011;47967;51.756;10.174;2023-02-08T09:15:57;27.70;;;12.20;;
62010;SDS011;47967;51.756;10.174;2023-02-08T09:19:59;27.13;;;12.43;;
62010;SDS011;47967;51.756;10.174;2023-02-08T09:24:06;28.70;;;11.77;;
62010;SDS011;47967;51.756;10.174;2023-02-08T09:28:09;28.45;;;13.93;;
62010;SDS011;47967;51.756;10.174;2023-02-08T09:32:11;30.83;;;13.03;;
62010;SDS011;47967;51.756;10.174;2023-02-08T09:36:14;28.20;;;13.23;;
62010;SDS011;47967;51.756;10.174;2023-02-08T09:40:20;33.35;;;13.65;;
62010;SDS011;47967;51.756;10.174;2023-02-08T09:44:26;28.92;;;12.38;;
62010;SDS011;47967;51.756;10.174;2023-02-08T09:48:38;30.70;;;14.15;;
62010;SDS011;47967;51.756;10.174;2023-02-08T09:52:42;35.85;;;14.73;;
62010;SDS011;47967;51.756;10.174;2023-02-08T09:56:50;33.80;;;14.75;;
62010;SDS011;47967;51.756;10.174;2023-02-08T10:00:54;31.00;;;14.85;;
62010;SDS011;47967;51.756;10.174;2023-02-08T10:04:58;35.53;;;15.27;;
62010;SDS011;47967;51.756;10.174;2023-02-08T10:09:03;30.38;;;14.30;;
62010;SDS011;47967;51.756;10.174;2023-02-08T10:13:14;30.42;;;14.07;;
62010;SDS011;47967;51.756;10.174;2023-02-08T10:22:12;30.90;;;14.57;;
62010;SDS011;47967;51.756;10.174;2023-02-08T10:26:24;36.17;;;15.55;;
62010;SDS011;47967;51.756;10.174;2023-02-08T10:30:34;28.50;;;13.25;;
62010;SDS011;47967;51.756;10.174;2023-02-08T10:34:44;30.08;;;14.13;;
62010;SDS011;47967;51.756;10.174;2023-02-08T10:38:49;31.77;;;14.02;;
62010;SDS011;47967;51.756;10.174;2023-02-08T10:43:01;33.15;;;14.57;;
62010;SDS011;47967;51.756;10.174;2023-02-08T10:47:15;35.60;;;15.27;;
62010;SDS011;47967;51.756;10.174;2023-02-08T10:51:23;30.02;;;15.70;;
62010;SDS011;47967;51.756;10.174;2023-02-08T10:55:26;28.00;;;13.80;;
62010;SDS011;47967;51.756;10.174;2023-02-08T10:59:29;27.42;;;13.05;;
62010;SDS011;47967;51.756;10.174;2023-02-08T11:03:35;25.48;;;12.40;;
62010;SDS011;47967;51.756;10.174;2023-02-08T11:07:39;26.83;;;11.65;;
62010;SDS011;47967;51.756;10.174;2023-02-08T11:11:42;15.27;;;7.38;;
62010;SDS011;47967;51.756;10.174;2023-02-08T11:15:47;13.60;;;4.70;;
62010;SDS011;47967;51.756;10.174;2023-02-08T11:19:55;9.23;;;4.53;;
62010;SDS011;47967;51.756;10.174;2023-02-08T11:24:00;8.35;;;3.70;;
62010;SDS011;47967;51.756;10.174;2023-02-08T11:28:17;6.60;;;3.13;;
62010;SDS011;47967;51.756;10.174;2023-02-08T11:32:24;12.65;;;3.88;;
62010;SDS011;47967;51.756;10.174;2023-02-08T11:36:28;6.53;;;3.60;;
62010;SDS011;47967;51.756;10.174;2023-02-08T11:40:33;9.68;;;4.68;;
62010;SDS011;47967;51.756;10.174;2023-02-08T11:44:40;10.05;;;3.80;;
62010;SDS011;47967;51.756;10.174;2023-02-08T11:48:47;8.55;;;3.75;;
62010;SDS011;47967;51.756;10.174;2023-02-08T11:52:54;17.98;;;5.47;;
62010;SDS011;47967;51.756;10.174;2023-02-08T11:57:00;10.50;;;4.90;;
62010;SDS011;47967;51.756;10.174;2023-02-08T12:01:05;11.20;;;3.60;;
62010;SDS011;47967;51.756;10.174;2023-02-08T12:05:20;8.68;;;3.03;;
62010;SDS011;47967;51.756;10.174;2023-02-08T12:14:37;5.93;;;2.63;;
62010;SDS011;47967;51.756;10.174;2023-02-08T12:18:52;15.35;;;2.75;;
62010;SDS011;47967;51.756;10.174;2023-02-08T12:23:13;4.53;;;2.53;;
62010;SDS011;47967;51.756;10.174;2023-02-08T12:27:31;4.55;;;2.22;;
62010;SDS011;47967;51.756;10.174;2023-02-08T12:31:45;8.27;;;2.47;;
62010;SDS011;47967;51.756;10.174;2023-02-08T12:36:00;5.13;;;2.38;;
62010;SDS011;47967;51.756;10.174;2023-02-08T12:40:19;4.68;;;2.30;;
62010;SDS011;47967;51.756;10.174;2023-02-08T12:44:52;10.68;;;3.17;;
62010;SDS011;47967;51.756;10.174;2023-02-08T12:49:11;5.70;;;3.00;;
62010;SDS011;47967;51.756;10.174;2023-02-08T12:53:34;7.05;;;2.78;;
62010;SDS011;47967;51.756;10.174;2023-02-08T12:57:40;7.32;;;3.08;;
62010;SDS011;47967;51.756;10.174;2023-02-08T13:01:47;6.85;;;3.05;;
62010;SDS011;47967;51.756;10.174;2023-02-08T13:05:57;7.45;;;3.22;;
62010;SDS011;47967;51.756;10.174;2023-02-08T13:10:04;9.00;;;3.20;;
62010;SDS011;47967;51.756;10.174;2023-02-08T13:14:10;5.90;;;3.15;;
62010;SDS011;47967;51.756;10.174;2023-02-08T13:18:23;16.58;;;4.00;;
62010;SDS011;47967;51.756;10.174;2023-02-08T13:22:32;9.25;;;3.20;;
62010;SDS011;47967;51.756;10.174;2023-02-08T13:26:39;5.78;;;2.53;;
62010;SDS011;47967;51.756;10.174;2023-02-08T13:30:42;8.02;;;3.33;;
62010;SDS011;47967;51.756;10.174;2023-02-08T13:34:47;6.90;;;3.40;;
62010;SDS011;47967;51.756;10.174;2023-02-08T13:38:53;7.97;;;3.10;;
62010;SDS011;47967;51.756;10.174;2023-02-08T13:42:58;7.57;;;3.88;;
62010;SDS011;47967;51.756;10.174;2023-02-08T13:47:03;9.85;;;3.42;;
62010;SDS011;47967;51.756;10.174;2023-02-08T13:51:11;9.95;;;4.20;;
62010;SDS011;47967;51.756;10.174;2023-02-08T13:55:55;9.73;;;4.97;;
62010;SDS011;47967;51.756;10.174;2023-02-08T14:00:16;14.00;;;5.45;;
62010;SDS011;47967;51.756;10.174;2023-02-08T14:08:34;11.10;;;4.90;;
62010;SDS011;47967;51.756;10.174;2023-02-08T14:12:45;11.68;;;5.05;;
62010;SDS011;47967;51.756;10.174;2023-02-08T14:17:08;12.38;;;5.20;;
62010;SDS011;47967;51.756;10.174;2023-02-08T14:21:23;9.55;;;4.75;;
62010;SDS011;47967;51.756;10.174;2023-02-08T14:25:39;12.00;;;5.43;;
62010;SDS011;47967;51.756;10.174;2023-02-08T14:29:44;10.23;;;4.75;;
62010;SDS011;47967;51.756;10.174;2023-02-08T14:33:57;10.98;;;5.32;;
62010;SDS011;47967;51.756;10.174;2023-02-08T14:42:53;14.57;;;6.43;;
62010;SDS011;47967;51.756;10.174;2023-02-08T14:46:57;12.43;;;5.97;;
62010;SDS011;47967;51.756;10.174;2023-02-08T14:51:01;20.07;;;7.30;;
62010;SDS011;47967;51.756;10.174;2023-02-08T14:55:20;12.27;;;6.28;;
62010;SDS011;47967;51.756;10.174;2023-02-08T14:59:29;11.98;;;5.75;;
62010;SDS011;47967;51.756;10.174;2023-02-08T15:03:35;12.27;;;5.60;;
62010;SDS011;47967;51.756;10.174;2023-02-08T15:07:41;11.90;;;6.28;;
62010;SDS011;47967;51.756;10.174;2023-02-08T15:11:57;18.35;;;6.47;;
62010;SDS011;47967;51.756;10.174;2023-02-08T15:16:03;13.43;;;6.00;;
62010;SDS011;47967;51.756;10.174;2023-02-08T15:20:15;11.38;;;5.65;;
62010;SDS011;47967;51.756;10.174;2023-02-08T15:24:20;12.88;;;5.60;;
62010;SDS011;47967;51.756;10.174;2023-02-08T15:28:26;12.88;;;5.82;;
62010;SDS011;47967;51.756;10.174;2023-02-08T15:32:31;12.60;;;6.10;;
62010;SDS011;47967;51.756;10.174;2023-02-08T15:36:35;14.90;;;6.22;;
62010;SDS011;47967;51.756;10.174;2023-02-08T15:40:38;12.52;;;5.80;;
62010;SDS011;47967;51.756;10.174;2023-02-08T15:44:41;17.80;;;7.30;;
62010;SDS011;47967;51.756;10.174;2023-02-08T15:48:46;15.98;;;7.15;;
62010;SDS011;47967;51.756;10.174;2023-02-08T15:52:52;13.52;;;6.68;;
62010;SDS011;47967;51.756;10.174;2023-02-08T15:56:59;11.93;;;5.90;;
62010;SDS011;47967;51.756;10.174;2023-02-08T16:01:06;17.48;;;7.07;;
62010;SDS011;47967;51.756;10.174;2023-02-08T16:05:15;14.75;;;6.80;;
62010;SDS011;47967;51.756;10.174;2023-02-08T16:09:21;15.75;;;6.78;;
62010;SDS011;47967;51.756;10.174;2023-02-08T16:13:29;12.77;;;6.88;;
62010;SDS011;47967;51.756;10.174;2023-02-08T16:17:37;13.57;;;6.55;;
62010;SDS011;47967;51.756;10.174;2023-02-08T16:21:45;16.80;;;7.13;;
62010;SDS011;47967;51.756;10.174;2023-02-08T16:25:48;15.98;;;7.45;;
62010;SDS011;47967;51.756;10.174;2023-02-08T16:29:51;14.07;;;7.03;;
62010;SDS011;47967;51.756;10.174;2023-02-08T16:33:55;15.35;;;6.78;;
62010;SDS011;47967;51.756;10.174;2023-02-08T16:38:01;14.48;;;7.38;;
62010;SDS011;47967;51.756;10.174;2023-02-08T16:42:06;18.17;;;7.47;;
62010;SDS011;47967;51.756;10.174;2023-02-08T16:46:22;18.73;;;8.38;;
62010;SDS011;47967;51.756;10.174;2023-02-08T16:50:27;22.65;;;8.70;;
62010;SDS011;47967;51.756;10.174;2023-02-08T16:59:02;18.15;;;9.38;;
62010;SDS011;47967;51.756;10.174;2023-02-08T17:03:05;18.35;;;9.02;;
62010;SDS011;47967;51.756;10.174;2023-02-08T17:07:09;20.50;;;10.33;;
62010;SDS011;47967;51.756;10.174;2023-02-08T17:11:18;20.73;;;9.43;;
62010;SDS011;47967;51.756;10.174;2023-02-08T17:15:22;19.00;;;9.20;;
62010;SDS011;47967;51.756;10.174;2023-02-08T17:19:25;22.98;;;9.52;;
62010;SDS011;47967;51.756;10.174;2023-02-08T17:23:27;19.53;;;8.70;;
62010;SDS011;47967;51.756;10.174;2023-02-08T17:27:30;20.43;;;9.10;;
62010;SDS011;47967;51.756;10.174;2023-02-08T17:31:33;22.90;;;9.37;;
62010;SDS011;47967;51.756;10.174;2023-02-08T17:35:37;21.85;;;9.13;;
62010;SDS011;47967;51.756;10.174;2023-02-08T17:39:39;22.80;;;8.80;;
62010;SDS011;47967;51.756;10.174;2023-02-08T17:43:42;20.37;;;9.50;;
62010;SDS011;47967;51.756;10.174;2023-02-08T17:47:46;17.83;;;8.53;;
62010;SDS011;47967;51.756;10.174;2023-02-08T17:51:48;21.45;;;9.65;;
62010;SDS011;47967;51.756;10.174;2023-02-08T17:55:51;21.63;;;10.10;;
62010;SDS011;47967;51.756;10.174;2023-02-08T17:59:53;23.50;;;10.30;;
62010;SDS011;47967;51.756;10.174;2023-02-08T18:03:58;23.63;;;9.73;;
62010;SDS011;47967;51.756;10.174;2023-02-08T18:08:01;26.52;;;10.38;;
62010;SDS011;47967;51.756;10.174;2023-02-08T18:12:04;21.50;;;10.40;;
62010;SDS011;47967;51.756;10.174;2023-02-08T18:16:07;20.48;;;9.30;;
62010;SDS011;47967;51.756;10.174;2023-02-08T18:20:13;21.70;;;9.85;;
62010;SDS011;47967;51.756;10.174;2023-02-08T18:24:16;20.58;;;9.70;;
62010;SDS011;47967;51.756;10.174;2023-02-08T18:28:19;22.47;;;9.77;;
62010;SDS011;47967;51.756;10.174;2023-02-08T18:32:21;27.53;;;11.70;;
62010;SDS011;47967;51.756;10.174;2023-02-08T18:36:25;26.10;;;11.17;;
62010;SDS011;47967;51.756;10.174;2023-02-08T18:40:28;24.45;;;11.07;;
62010;SDS011;47967;51.756;10.174;2023-02-08T18:44:32;25.67;;;11.48;;
62010;SDS011;47967;51.756;10.174;2023-02-08T18:48:37;29.63;;;11.88;;
62010;SDS011;47967;51.756;10.174;2023-02-08T18:52:41;28.55;;;12.27;;
62010;SDS011;47967;51.756;10.174;2023-02-08T18:56:44;29.80;;;12.40;;
62010;SDS011;47967;51.756;10.174;2023-02-08T19:00:47;27.40;;;11.73;;
62010;SDS011;47967;51.756;10.174;2023-02-08T19:04:50;22.75;;;11.32;;
62010;SDS011;47967;51.756;10.174;2023-02-08T19:08:55;26.57;;;11.47;;
62010;SDS011;47967;51.756;10.174;2023-02-08T19:12:59;29.77;;;13.13;;
62010;SDS011;47967;51.756;10.174;2023-02-08T19:17:02;29.40;;;12.83;;
62010;SDS011;47967;51.756;10.174;2023-02-08T19:21:06;26.60;;;13.20;;
62010;SDS011;47967;51.756;10.174;2023-02-08T19:25:11;31.50;;;13.57;;
62010;SDS011;47967;51.756;10.174;2023-02-08T19:29:14;28.52;;;13.77;;
62010;SDS011;47967;51.756;10.174;2023-02-08T19:33:20;29.05;;;12.93;;
62010;SDS011;47967;51.756;10.174;2023-02-08T19:37:22;33.33;;;15.23;;
62010;SDS011;47967;51.756;10.174;2023-02-08T19:41:27;35.10;;;16.47;;
62010;SDS011;47967;51.756;10.174;2023-02-08T19:45:33;32.00;;;14.07;;
62010;SDS011;47967;51.756;10.174;2023-02-08T19:53:38;29.58;;;13.95;;
62010;SDS011;47967;51.756;10.174;2023-02-08T19:57:42;30.33;;;14.40;;
62010;SDS011;47967;51.756;10.174;2023-02-08T20:01:44;31.05;;;13.38;;
62010;SDS011;47967;51.756;10.174;2023-02-08T20:05:48;28.40;;;13.88;;
62010;SDS011;47967;51.756;10.174;2023-02-08T20:09:51;34.40;;;15.15;;
62010;SDS011;47967;51.756;10.174;2023-02-08T20:13:57;31.93;;;15.27;;
62010;SDS011;47967;51.756;10.174;2023-02-08T20:18:01;35.83;;;15.77;;
62010;SDS011;47967;51.756;10.174;2023-02-08T20:22:04;34.13;;;14.88;;
62010;SDS011;47967;51.756;10.174;2023-02-08T20:26:08;33.35;;;14.45;;
62010;SDS011;47967;51.756;10.174;2023-02-08T20:30:14;31.55;;;14.02;;
62010;SDS011;47967;51.756;10.174;2023-02-08T20:34:18;29.80;;;13.18;;
62010;SDS011;47967;51.756;10.174;2023-02-08T20:38:20;29.33;;;13.07;;
62010;SDS011;47967;51.756;10.174;2023-02-08T20:42:23;32.17;;;14.27;;
62010;SDS011;47967;51.756;10.174;2023-02-08T20:46:28;29.50;;;12.83;;
62010;SDS011;47967;51.756;10.174;2023-02-08T20:50:32;29.23;;;12.85;;
62010;SDS011;47967;51.756;10.174;2023-02-08T20:54:35;26.67;;;12.40;;
62010;SDS011;47967;51.756;10.174;2023-02-08T20:58:38;27.70;;;12.52;;
62010;SDS011;47967;51.756;10.174;2023-02-08T21:02:42;24.02;;;10.07;;
62010;SDS011;47967;51.756;10.174;2023-02-08T21:06:45;24.75;;;11.63;;
62010;SDS011;47967;51.756;10.174;2023-02-08T21:10:48;21.30;;;10.73;;
62010;SDS011;47967;51.756;10.174;2023-02-08T21:14:50;23.50;;;11.40;;
62010;SDS011;47967;51.756;10.174;2023-02-08T21:18:54;26.77;;;11.30;;
62010;SDS011;47967;51.756;10.174;2023-02-08T21:22:58;22.00;;;11.02;;
62010;SDS011;47967;51.756;10.174;2023-02-08T21:27:00;27.47;;;12.60;;
62010;SDS011;47967;51.756;10.174;2023-02-08T21:31:04;18.80;;;8.93;;
62010;SDS011;47967;51.756;10.174;2023-02-08T21:35:09;25.95;;;12.05;;
62010;SDS011;47967;51.756;10.174;2023-02-08T21:39:11;27.70;;;12.68;;
62010;SDS011;47967;51.756;10.174;2023-02-08T21:43:14;24.60;;;12.27;;
62010;SDS011;47967;51.756;10.174;2023-02-08T21:47:16;26.77;;;11.20;;
62010;SDS011;47967;51.756;10.174;2023-02-08T21:51:21;25.23;;;11.30;;
62010;SDS011;47967;51.756;10.174;2023-02-08T21:55:43;30.27;;;11.83;;
62010;SDS011;47967;51.756;10.174;2023-02-08T21:59:47;26.95;;;12.15;;
